createdAt,value
2023-03-04T00:00:25.472Z,5.6
2023-03-04T00:04:27.869Z,5.6
2023-03-04T00:06:29.069Z,5.6
2023-03-04T00:08:30.270Z,5.6
2023-03-04T00:10:31.463Z,5.6
2023-03-04T00:12:32.660Z,5.6
2023-03-04T00:14:37.094Z,5.6
2023-03-04T00:16:38.337Z,5.6
2023-03-04T00:18:39.500Z,5.6
2023-03-04T00:20:40.708Z,5.6
2023-03-04T00:22:41.906Z,5.6
2023-03-04T00:24:43.108Z,5.6
2023-03-04T00:26:44.291Z,5.6
2023-03-04T00:28:48.735Z,5.6
2023-03-04T00:30:49.942Z,5.6
2023-03-04T00:32:51.135Z,5.6
2023-03-04T00:33:53.352Z,5.6
2023-03-04T00:35:54.614Z,5.6
2023-03-04T00:37:55.782Z,5.6
2023-03-04T00:39:56.991Z,5.6
2023-03-04T00:42:01.429Z,5.6
2023-03-04T00:44:02.628Z,5.6
2023-03-04T00:50:06.225Z,5.6
2023-03-04T00:52:07.610Z,5.6
2023-03-04T00:54:08.600Z,5.6
2023-03-04T00:56:13.069Z,5.5
2023-03-04T01:00:15.462Z,5.5
2023-03-04T01:02:16.884Z,5.5
2023-03-04T01:04:17.840Z,5.5
2023-03-04T01:06:19.047Z,5.5
2023-03-04T01:08:20.255Z,5.6
2023-03-04T01:10:24.668Z,5.5
2023-03-04T01:14:27.117Z,5.6
2023-03-04T01:16:28.360Z,5.5
2023-03-04T01:18:29.502Z,5.6
2023-03-04T01:20:30.695Z,5.5
2023-03-04T01:22:31.876Z,5.6
2023-03-04T01:26:37.525Z,5.5
2023-03-04T01:28:38.718Z,5.5
2023-03-04T01:33:08.341Z,5.5
2023-03-04T01:35:09.520Z,5.5
2023-03-04T01:39:15.154Z,5.5
2023-03-04T01:43:17.531Z,5.5
2023-03-04T01:45:18.779Z,5.5
2023-03-04T01:47:19.949Z,5.5
2023-03-04T01:49:21.149Z,5.5
2023-03-04T01:51:25.575Z,5.5
2023-03-04T01:53:26.867Z,5.6
2023-03-04T01:55:27.932Z,5.6
2023-03-04T01:57:29.155Z,5.6
2023-03-04T01:59:30.333Z,5.6
2023-03-04T02:01:31.526Z,5.6
2023-03-04T02:03:32.694Z,5.5
2023-03-04T02:05:37.130Z,5.5
2023-03-04T02:07:38.332Z,5.5
2023-03-04T02:09:39.504Z,5.5
2023-03-04T02:11:40.720Z,5.5
2023-03-04T02:13:41.908Z,5.5
2023-03-04T02:17:44.281Z,5.5
2023-03-04T02:19:48.776Z,5.5
2023-03-04T02:21:49.999Z,5.5
2023-03-04T02:23:51.187Z,5.5
2023-03-04T02:24:53.377Z,5.4
2023-03-04T02:26:54.597Z,5.5
2023-03-04T02:28:55.776Z,5.4
2023-03-04T02:30:56.968Z,5.5
2023-03-04T02:33:01.408Z,5.4
2023-03-04T02:37:03.797Z,5.4
2023-03-04T02:39:04.969Z,5.5
2023-03-04T02:41:06.155Z,5.4
2023-03-04T02:43:07.342Z,5.5
2023-03-04T02:45:08.532Z,5.5
2023-03-04T02:47:14.515Z,5.5
2023-03-04T02:49:15.687Z,5.5
2023-03-04T02:51:16.890Z,5.5
2023-03-04T02:53:18.074Z,5.5
2023-03-04T02:55:19.297Z,5.4
2023-03-04T02:57:20.451Z,5.5
2023-03-04T02:59:21.672Z,5.5
2023-03-04T03:01:26.114Z,5.5
2023-03-04T03:03:27.300Z,5.5
2023-03-04T03:05:28.456Z,5.5
2023-03-04T03:07:29.665Z,5.5
2023-03-04T03:09:30.923Z,5.5
2023-03-04T03:11:32.064Z,5.5
2023-03-04T03:13:33.251Z,5.5
2023-03-04T03:15:37.688Z,5.5
2023-03-04T03:17:38.880Z,5.5
2023-03-04T03:19:40.097Z,5.5
2023-03-04T03:24:44.850Z,5.5
2023-03-04T03:36:55.085Z,5.4
2023-03-04T03:38:56.281Z,5.4
2023-03-04T03:40:57.506Z,5.4
2023-03-04T03:45:03.164Z,5.4
2023-03-04T03:47:04.325Z,5.4
2023-03-04T03:49:05.532Z,5.4
2023-03-04T03:51:06.711Z,5.4
2023-03-04T03:53:07.930Z,5.4
2023-03-04T03:55:09.165Z,5.5
2023-03-04T03:57:13.574Z,5.4
2023-03-04T03:59:14.800Z,5.4
2023-03-04T04:01:15.970Z,5.4
2023-03-04T04:03:17.157Z,5.4
2023-03-04T04:05:18.345Z,5.4
2023-03-04T04:07:19.546Z,5.4
2023-03-04T04:09:20.723Z,5.4
2023-03-04T04:13:26.388Z,5.4
2023-03-04T04:16:29.827Z,5.4
2023-03-04T04:18:30.973Z,5.4
2023-03-04T04:20:32.187Z,5.4
2023-03-04T04:22:33.360Z,5.4
2023-03-04T04:24:37.812Z,5.4
2023-03-04T04:26:39.008Z,5.4
2023-03-04T04:28:40.224Z,5.4
2023-03-04T04:30:41.456Z,5.3
2023-03-04T04:32:42.565Z,5.4
2023-03-04T04:34:43.737Z,5.3
2023-03-04T04:40:50.564Z,5.4
2023-03-04T04:42:51.768Z,5.4
2023-03-04T04:44:52.983Z,5.4
2023-03-04T04:46:54.139Z,5.4
2023-03-04T04:48:55.324Z,5.4
2023-03-04T04:50:56.536Z,5.4
2023-03-04T04:53:01.014Z,5.4
2023-03-04T04:55:02.193Z,5.4
2023-03-04T04:59:04.567Z,5.4
2023-03-04T05:01:05.755Z,5.4
2023-03-04T05:03:06.975Z,5.4
2023-03-04T05:05:08.146Z,5.4
2023-03-04T05:07:12.573Z,5.3
2023-03-04T05:09:13.781Z,5.3
2023-03-04T05:11:14.966Z,5.3
2023-03-04T05:13:43.335Z,5.3
2023-03-04T05:15:44.568Z,5.3
2023-03-04T05:17:45.695Z,5.3
2023-03-04T05:19:50.134Z,5.3
2023-03-04T05:21:51.334Z,5.3
2023-03-04T05:27:54.901Z,5.3
2023-03-04T05:31:57.288Z,5.4
2023-03-04T05:34:01.729Z,5.4
2023-03-04T05:36:02.932Z,5.4
2023-03-04T05:38:04.132Z,5.4
2023-03-04T05:40:05.356Z,5.4
2023-03-04T05:42:06.568Z,5.4
2023-03-04T05:44:07.675Z,5.4
2023-03-04T05:46:08.985Z,5.4
2023-03-04T05:48:13.265Z,5.4
2023-03-04T05:50:14.462Z,5.5
2023-03-04T05:54:16.827Z,5.4
2023-03-04T05:56:18.027Z,5.4
2023-03-04T05:58:19.207Z,5.4
2023-03-04T06:00:20.413Z,5.4
2023-03-04T06:02:24.898Z,5.4
2023-03-04T06:04:25.996Z,5.4
2023-03-04T06:06:27.300Z,5.4
2023-03-04T06:07:29.386Z,5.4
2023-03-04T06:09:30.607Z,5.4
2023-03-04T06:11:31.996Z,5.4
2023-03-04T06:13:32.989Z,5.4
2023-03-04T06:15:37.400Z,5.5
2023-03-04T06:17:41.441Z,5.5
2023-03-04T06:19:39.786Z,5.4
2023-03-04T06:21:41.000Z,5.5
2023-03-04T06:29:48.975Z,5.6
2023-03-04T06:35:52.584Z,5.6
2023-03-04T06:37:53.762Z,5.6
2023-03-04T06:41:56.180Z,5.6
2023-03-04T06:54:06.534Z,5.4
2023-03-04T06:56:07.718Z,5.4
2023-03-04T07:03:16.792Z,5.6
2023-03-04T07:05:18.017Z,5.6
2023-03-04T07:07:19.193Z,5.6
2023-03-04T07:09:20.372Z,5.6
2023-03-04T07:11:24.816Z,5.6
2023-03-04T07:13:26.118Z,5.7
2023-03-04T07:15:27.212Z,5.7
2023-03-04T07:17:28.405Z,5.7
2023-03-04T07:19:30.038Z,5.8
2023-03-04T07:21:30.755Z,5.8
2023-03-04T07:23:31.957Z,5.9
2023-03-04T07:25:36.390Z,5.9
2023-03-04T07:27:37.566Z,5.9
2023-03-04T07:29:38.772Z,6
2023-03-04T07:31:39.990Z,5.9
2023-03-04T07:33:41.194Z,5.9
2023-03-04T07:35:42.399Z,6
2023-03-04T07:41:49.234Z,6.1
2023-03-04T07:43:50.429Z,6.1
2023-03-04T07:47:52.849Z,6
2023-03-04T07:49:54.031Z,6.1
2023-03-04T07:51:55.227Z,6.2
2023-03-04T07:53:59.696Z,6.1
2023-03-04T07:59:04.293Z,6.2
2023-03-04T08:01:05.481Z,6.3
2023-03-04T08:03:06.695Z,6.3
2023-03-04T08:05:07.908Z,6.3
2023-03-04T08:07:12.361Z,6.2
2023-03-04T08:09:13.582Z,6.3
2023-03-04T08:11:14.743Z,6.4
2023-03-04T08:15:17.164Z,6.6
2023-03-04T08:19:19.561Z,6.6
2023-03-04T08:21:23.997Z,6.6
2023-03-04T08:23:25.260Z,6.6
2023-03-04T08:25:26.427Z,6.5
2023-03-04T08:27:27.629Z,6.4
2023-03-04T08:29:28.818Z,6.6
2023-03-04T08:31:30.315Z,6.8
2023-03-04T08:33:31.228Z,6.6
2023-03-04T08:35:37.236Z,6.6
2023-03-04T08:37:38.397Z,6.4
2023-03-04T08:39:39.587Z,6.5
2023-03-04T08:41:40.786Z,6.6
2023-03-04T08:51:50.110Z,7
2023-03-04T08:53:51.294Z,7
2023-03-04T08:56:19.639Z,6.7
2023-03-04T08:58:20.882Z,6.6
2023-03-04T09:00:22.057Z,6.7
2023-03-04T09:02:26.524Z,6.8
2023-03-04T09:04:27.786Z,6.8
2023-03-04T09:06:28.970Z,7
2023-03-04T09:08:30.180Z,7.2
2023-03-04T09:10:31.419Z,7.8
2023-03-04T09:16:38.300Z,7.4
2023-03-04T09:18:39.517Z,7.2
2023-03-04T09:22:41.975Z,7.2
2023-03-04T09:24:43.161Z,7.3
2023-03-04T09:28:45.670Z,7.7
2023-03-04T09:30:50.023Z,8
2023-03-04T09:32:51.240Z,8
2023-03-04T09:34:52.485Z,8.3
2023-03-04T09:36:53.684Z,8.5
2023-03-04T09:38:54.907Z,8.3
2023-03-04T09:40:56.120Z,8.2
2023-03-04T09:42:57.317Z,8.3
2023-03-04T09:45:01.804Z,8.2
2023-03-04T09:47:03.017Z,8.2
2023-03-04T09:49:07.147Z,7.9
2023-03-04T09:50:06.487Z,8
2023-03-04T09:54:08.924Z,8
2023-03-04T09:56:10.135Z,7.7
2023-03-04T09:58:14.603Z,7.2
2023-03-04T10:02:17.052Z,7.2
2023-03-04T10:04:18.292Z,7.2
2023-03-04T10:06:19.471Z,7.2
2023-03-04T10:08:20.687Z,7.2
2023-03-04T10:10:22.021Z,7.1
2023-03-04T10:12:26.384Z,7.1
2023-03-04T10:14:27.588Z,7.1
2023-03-04T10:16:28.850Z,7.3
2023-03-04T10:18:30.014Z,7.5
2023-03-04T10:20:31.267Z,7.3
2023-03-04T10:22:32.467Z,8.6
2023-03-04T10:24:33.669Z,9.6
2023-03-04T10:26:38.155Z,8.3
2023-03-04T10:28:39.324Z,8.1
2023-03-04T10:30:40.551Z,7.8
2023-03-04T10:32:41.808Z,7.8
2023-03-04T10:34:42.988Z,7.9
2023-03-04T10:36:44.226Z,7.9
2023-03-04T10:38:45.407Z,7.7
2023-03-04T10:40:49.891Z,7.6
2023-03-04T10:42:51.117Z,7.7
2023-03-04T10:44:52.312Z,7.7
2023-03-04T10:45:54.608Z,7.8
2023-03-04T10:47:55.744Z,7.7
2023-03-04T10:49:57.016Z,7.6
2023-03-04T10:51:58.180Z,7.5
2023-03-04T11:00:06.418Z,7.9
2023-03-04T11:02:07.512Z,8.4
2023-03-04T11:04:08.792Z,10
2023-03-04T11:10:15.637Z,12.1
2023-03-04T11:12:16.848Z,10.1
2023-03-04T11:14:18.067Z,9.2
2023-03-04T11:16:19.334Z,8.7
2023-03-04T11:20:21.720Z,8.3
2023-03-04T11:24:29.435Z,8
2023-03-04T11:26:28.635Z,7.8
2023-03-04T11:28:29.871Z,7.7
2023-03-04T11:36:38.028Z,8.4
2023-03-04T11:38:39.258Z,8.6
2023-03-04T11:40:40.489Z,8.7
2023-03-04T11:47:46.365Z,8.5
2023-03-04T11:49:50.845Z,8.5
2023-03-04T11:51:52.067Z,8.4
2023-03-04T11:59:56.978Z,7
2023-03-04T12:01:58.192Z,7
2023-03-04T12:10:06.324Z,7.2
2023-03-04T12:12:07.521Z,7.2
2023-03-04T12:22:17.120Z,7.3
2023-03-04T12:24:18.234Z,7.4
2023-03-04T12:26:19.356Z,7.5
2023-03-04T12:28:20.520Z,7.6
2023-03-04T12:30:21.674Z,7.8
2023-03-04T12:34:27.351Z,8.2
2023-03-04T12:38:56.900Z,8.4
2023-03-04T12:40:58.115Z,8.4
2023-03-04T12:42:59.340Z,8.1
2023-03-04T12:45:03.795Z,7.9
2023-03-04T12:47:05.016Z,7.9
2023-03-04T12:49:06.218Z,8
2023-03-04T12:51:07.447Z,8
2023-03-04T12:53:08.702Z,7.8
2023-03-04T12:55:09.871Z,7.8
2023-03-04T12:57:11.083Z,7.8
2023-03-04T12:59:15.594Z,7.6
2023-03-04T13:01:16.799Z,7.6
2023-03-04T13:03:18.076Z,7.4
2023-03-04T13:05:19.236Z,7.4
2023-03-04T13:07:20.419Z,7.4
2023-03-04T13:09:21.626Z,7.4
2023-03-04T13:11:22.869Z,7.6
2023-03-04T13:13:27.376Z,7.6
2023-03-04T13:15:28.540Z,7.7
2023-03-04T13:17:29.749Z,7.7
2023-03-04T13:19:30.971Z,7.6
2023-03-04T13:21:32.178Z,7.8
2023-03-04T13:23:33.412Z,7.8
2023-03-04T13:32:44.360Z,8
2023-03-04T13:34:44.990Z,8.1
2023-03-04T13:36:46.208Z,8.1
2023-03-04T13:38:47.440Z,8.2
2023-03-04T13:40:51.912Z,8.2
2023-03-04T13:42:53.158Z,8.1
2023-03-04T13:44:54.369Z,8
2023-03-04T13:46:55.675Z,8
2023-03-04T13:48:56.793Z,8
2023-03-04T13:50:58.000Z,7.9
2023-03-04T13:52:59.226Z,7.7
2023-03-04T13:55:03.690Z,7.7
2023-03-04T13:57:04.924Z,7.7
2023-03-04T13:59:06.144Z,7.7
2023-03-04T14:01:07.407Z,7.9
2023-03-04T14:03:08.569Z,8
2023-03-04T14:05:09.808Z,7.9
2023-03-04T14:09:15.499Z,7.7
2023-03-04T14:11:16.736Z,7.8
2023-03-04T14:13:17.954Z,7.9
2023-03-04T14:15:19.173Z,7.8
2023-03-04T14:17:20.391Z,7.8
2023-03-04T14:19:21.617Z,7.8
2023-03-04T14:21:22.808Z,7.7
2023-03-04T14:23:27.297Z,7.7
2023-03-04T14:25:30.061Z,7.9
2023-03-04T14:27:31.381Z,8.1
2023-03-04T14:28:33.501Z,7.9
2023-03-04T14:30:42.709Z,7.9
2023-03-04T14:32:36.082Z,7.8
2023-03-04T14:34:38.048Z,7.7
2023-03-04T14:36:42.522Z,7.7
2023-03-04T14:42:46.320Z,7.6
2023-03-04T14:44:48.984Z,7.5
2023-03-04T14:47:04.591Z,7.5
2023-03-04T14:48:49.840Z,7.5
2023-03-04T14:50:54.282Z,7.6
2023-03-04T14:52:55.712Z,7.6
2023-03-04T14:54:56.722Z,7.3
2023-03-04T14:56:57.962Z,7.3
2023-03-04T14:58:59.171Z,7.4
2023-03-04T15:01:00.430Z,7.3
2023-03-04T15:07:07.320Z,7.2
2023-03-04T15:09:08.523Z,7.2
2023-03-04T15:11:09.749Z,7.2
2023-03-04T15:13:11.041Z,7.1
2023-03-04T15:19:19.374Z,7
2023-03-04T15:21:19.075Z,7
2023-03-04T15:23:20.295Z,7.1
2023-03-04T15:24:22.520Z,7.2
2023-03-04T15:26:23.732Z,7.2
2023-03-04T15:28:24.932Z,7.3
2023-03-04T15:30:26.132Z,7.1
2023-03-04T15:32:30.717Z,7.1
2023-03-04T15:34:31.825Z,7.2
2023-03-04T15:36:33.029Z,7.1
2023-03-04T15:38:34.248Z,7.1
2023-03-04T15:40:35.462Z,7.2
2023-03-04T15:42:36.664Z,7.3
2023-03-04T15:44:37.880Z,7.3
2023-03-04T15:46:42.386Z,7.1
2023-03-04T15:48:43.588Z,7.1
2023-03-04T15:50:44.791Z,7.1
2023-03-04T15:52:46.026Z,7.1
2023-03-04T15:54:47.220Z,7
2023-03-04T15:56:48.415Z,7
2023-03-04T15:58:49.641Z,7
2023-03-04T16:00:54.118Z,7.1
2023-03-04T16:02:55.328Z,7.1
2023-03-04T16:04:56.541Z,7.1
2023-03-04T16:06:57.739Z,7
2023-03-04T16:08:58.960Z,6.9
2023-03-04T16:11:00.165Z,6.9
2023-03-04T16:13:01.364Z,6.9
2023-03-04T16:17:07.047Z,6.9
2023-03-04T16:19:08.279Z,6.8
2023-03-04T16:21:36.617Z,6.8
2023-03-04T16:23:37.839Z,6.8
2023-03-04T16:25:39.057Z,6.8
2023-03-04T16:27:43.498Z,6.8
2023-03-04T16:31:45.941Z,6.8
2023-03-04T16:35:48.476Z,6.6
2023-03-04T16:37:49.551Z,6.6
2023-03-04T16:43:57.070Z,6.5
2023-03-04T16:45:57.652Z,6.5
2023-03-04T16:47:58.831Z,6.5
2023-03-04T16:50:00.096Z,6.4
2023-03-04T16:52:01.300Z,6.4
2023-03-04T16:54:02.482Z,6.3
2023-03-04T16:56:06.935Z,6.2
2023-03-04T16:58:08.406Z,6.2
2023-03-04T17:00:10.441Z,6.1
2023-03-04T17:02:10.553Z,5.9
2023-03-04T17:04:11.772Z,5.9
2023-03-04T17:06:12.962Z,6.1
2023-03-04T17:08:14.196Z,6
2023-03-04T17:10:19.880Z,5.8
2023-03-04T17:12:19.839Z,5.8
2023-03-04T17:14:21.042Z,5.8
2023-03-04T17:19:25.676Z,5.8
2023-03-04T17:21:26.871Z,5.8
2023-03-04T17:23:31.344Z,5.8
2023-03-04T17:25:32.530Z,5.8
2023-03-04T17:29:34.906Z,5.7
2023-03-04T17:33:37.311Z,5.3
2023-03-04T17:35:38.553Z,5.2
2023-03-04T17:37:42.953Z,5.2
2023-03-04T17:41:45.375Z,5.2
2023-03-04T17:43:46.564Z,5.2
2023-03-04T17:45:47.738Z,5.2
2023-03-04T17:47:48.913Z,5.2
2023-03-04T17:49:50.116Z,5.3
2023-03-04T17:51:54.545Z,5.1
2023-03-04T17:53:55.754Z,5.2
2023-03-04T17:55:56.928Z,5.3
2023-03-04T17:57:58.151Z,5.2
2023-03-04T17:59:59.358Z,5.2
2023-03-04T18:02:00.661Z,5.2
2023-03-04T18:04:01.742Z,5.2
2023-03-04T18:06:06.224Z,5.2
2023-03-04T18:08:07.404Z,5.2
2023-03-04T18:10:08.596Z,5.1
2023-03-04T18:13:11.990Z,5.1
2023-03-04T18:15:13.191Z,5.1
2023-03-04T18:19:18.897Z,5.1
2023-03-04T18:21:20.036Z,5.1
2023-03-04T18:23:21.326Z,5.1
2023-03-04T18:25:22.428Z,5.1
2023-03-04T18:27:23.595Z,5.1
2023-03-04T18:29:24.813Z,5.1
2023-03-04T18:31:26.914Z,5.2
2023-03-04T18:33:30.427Z,5.1
2023-03-04T18:35:31.696Z,5.1
2023-03-04T18:37:32.809Z,5.1
2023-03-04T18:39:33.992Z,5.1
2023-03-04T18:41:35.190Z,5.1
2023-03-04T18:43:36.354Z,5.1
2023-03-04T18:45:37.620Z,5
2023-03-04T18:47:42.014Z,5.1
2023-03-04T18:51:44.371Z,5.1
2023-03-04T18:53:45.548Z,5.1
2023-03-04T18:55:46.755Z,5.1
2023-03-04T18:57:47.909Z,5.1
2023-03-04T18:59:49.118Z,5.1
2023-03-04T19:01:53.535Z,5
2023-03-04T19:03:54.776Z,5.1
2023-03-04T19:05:55.944Z,5.1
2023-03-04T19:06:58.161Z,5
2023-03-04T19:08:59.348Z,5
2023-03-04T19:11:00.540Z,5
2023-03-04T19:13:01.721Z,5
2023-03-04T19:15:06.181Z,5
2023-03-04T19:17:07.384Z,5
2023-03-04T19:19:08.546Z,5
2023-03-04T19:21:09.707Z,5
2023-03-04T19:23:10.884Z,5
2023-03-04T19:25:12.091Z,5
2023-03-04T19:27:13.241Z,5
2023-03-04T19:29:17.691Z,5
2023-03-04T19:31:18.859Z,4.9
2023-03-04T19:33:20.059Z,4.9
2023-03-04T19:35:21.314Z,4.8
2023-03-04T19:37:22.439Z,4.8
2023-03-04T19:39:23.595Z,4.8
2023-03-04T19:41:24.794Z,4.7
2023-03-04T19:45:30.409Z,4.7
2023-03-04T19:47:31.577Z,4.7
2023-03-04T19:49:32.777Z,4.7
2023-03-04T19:51:33.956Z,4.7
2023-03-04T19:53:35.151Z,4.6
2023-03-04T19:57:40.743Z,4.6
2023-03-04T19:59:41.929Z,4.6
2023-03-04T20:01:43.161Z,4.5
2023-03-04T20:04:11.552Z,4.5
2023-03-04T20:28:33.632Z,4.4
2023-03-04T20:32:36.080Z,4.4
2023-03-04T20:34:37.963Z,4.4
2023-03-04T20:36:38.354Z,4.3
2023-03-04T20:38:42.796Z,4.2
2023-03-04T20:40:43.977Z,4.2
2023-03-04T20:42:45.146Z,4.2
2023-03-04T20:46:47.536Z,4.2
2023-03-04T20:48:48.687Z,4.2
2023-03-04T20:50:49.889Z,4.1
2023-03-04T20:57:58.902Z,4.1
2023-03-04T21:00:00.174Z,4.1
2023-03-04T21:02:01.278Z,4.1
2023-03-04T21:04:02.497Z,4
2023-03-04T21:06:06.879Z,4
2023-03-04T21:08:08.055Z,3.9
2023-03-04T21:10:10.840Z,3.9
2023-03-04T21:12:10.417Z,3.9
2023-03-04T21:14:11.592Z,3.9
2023-03-04T21:16:12.757Z,3.9
2023-03-04T21:18:13.876Z,3.9
2023-03-04T21:24:20.672Z,3.9
2023-03-04T21:26:21.822Z,3.9
2023-03-04T21:28:22.991Z,3.9
2023-03-04T21:30:24.583Z,3.9
2023-03-04T21:32:25.575Z,3.9
2023-03-04T21:34:29.702Z,3.9
2023-03-04T21:36:30.885Z,3.9
2023-03-04T21:38:32.030Z,3.9
2023-03-04T21:40:33.231Z,3.9
2023-03-04T21:42:34.357Z,3.9
2023-03-04T21:44:48.731Z,3.9
2023-03-04T21:46:36.771Z,3.9
2023-03-04T21:48:41.186Z,3.9
2023-03-04T21:50:42.344Z,3.9
2023-03-04T21:52:43.528Z,3.9
2023-03-04T21:53:45.729Z,3.9
2023-03-04T21:57:48.057Z,3.9
2023-03-04T21:59:49.240Z,3.9
2023-03-04T22:01:53.765Z,3.9
2023-03-04T22:03:54.855Z,3.9
2023-03-04T22:05:56.008Z,3.9
2023-03-04T22:07:57.204Z,3.9
2023-03-04T22:09:58.392Z,3.9
2023-03-04T22:11:59.524Z,3.9
2023-03-04T22:14:00.713Z,3.9
2023-03-04T22:16:05.299Z,3.9
2023-03-04T22:18:06.345Z,3.9
2023-03-04T22:20:07.531Z,3.9
2023-03-04T22:22:08.698Z,3.9
2023-03-04T22:24:09.877Z,3.9
2023-03-04T22:26:11.055Z,3.9
2023-03-04T22:28:12.213Z,3.9
2023-03-04T22:38:21.374Z,3.8
2023-03-04T22:40:22.564Z,3.8
2023-03-04T22:42:23.970Z,3.8
2023-03-04T22:44:28.172Z,3.8
2023-03-04T22:46:29.343Z,3.8
2023-03-04T22:48:30.516Z,3.8
2023-03-04T22:49:32.718Z,3.8
2023-03-04T22:51:33.876Z,3.8
2023-03-04T22:53:35.045Z,3.8
2023-03-04T22:59:41.818Z,3.9
2023-03-04T23:01:42.963Z,3.9
2023-03-04T23:03:44.146Z,3.9
2023-03-04T23:05:45.326Z,3.9
2023-03-04T23:07:46.488Z,3.9
2023-03-04T23:09:47.670Z,3.9
2023-03-04T23:11:52.106Z,3.9
2023-03-04T23:13:53.260Z,3.9
2023-03-04T23:15:54.413Z,3.9
2023-03-04T23:17:55.615Z,3.9
2023-03-04T23:19:56.779Z,3.9
2023-03-04T23:21:57.917Z,3.9
2023-03-04T23:23:59.107Z,3.9
2023-03-04T23:26:03.488Z,3.9
2023-03-04T23:28:04.669Z,3.9
2023-03-04T23:30:05.851Z,3.9
2023-03-04T23:32:07.128Z,3.8
2023-03-04T23:34:08.197Z,3.8
2023-03-04T23:36:09.383Z,3.8
2023-03-04T23:38:10.563Z,3.8
2023-03-04T23:40:14.984Z,3.8
2023-03-04T23:42:16.148Z,3.8
2023-03-04T23:44:17.744Z,3.8
2023-03-04T23:46:45.717Z,3.7
2023-03-04T23:48:46.912Z,3.7
2023-03-04T23:52:52.491Z,3.6
2023-03-04T23:54:53.653Z,3.6
2023-03-04T23:56:54.859Z,3.5
